Time;durP1;ratioP1;P1;durP2;ratioP2;P2;SDS_P1;SDS_P2;PMS_P1;PMS_P2;Temp;Humidity;BMP_temperature;BMP_pressure;BME280_temperature;BME280_humidity;BME280_pressure;Samples;Min_cycle;Max_cycle;Signal;HPM_P1;HPM_P2
2023/01/16 00:01:54;;;;;;;9.02;2.20;;;5.50;99.90;;;;;;4947580;28;20576;-68
2023/01/16 00:04:22;;;;;;;9.20;2.38;;;5.50;99.90;;;;;;4953605;28;20057;-71
2023/01/16 00:06:49;;;;;;;9.07;2.03;;;5.50;99.90;;;;;;4952215;28;20576;-66
2023/01/16 00:09:17;;;;;;;13.98;3.25;;;5.50;99.90;;;;;;4956180;28;20043;-67
2023/01/16 00:11:45;;;;;;;6.72;2.45;;;5.50;99.90;;;;;;4951406;28;20061;-65
2023/01/16 00:14:12;;;;;;;6.25;1.48;;;5.50;99.90;;;;;;4956105;28;20042;-66
2023/01/16 00:16:39;;;;;;;8.77;2.53;;;5.50;99.90;;;;;;4955921;28;20136;-66
2023/01/16 00:19:06;;;;;;;14.45;2.00;;;5.50;99.90;;;;;;4954387;28;20105;-65
2023/01/16 00:21:33;;;;;;;9.70;4.03;;;5.40;99.90;;;;;;4948898;28;20055;-68
2023/01/16 00:24:00;;;;;;;10.00;2.63;;;5.50;99.90;;;;;;4953803;28;20438;-66
2023/01/16 00:26:28;;;;;;;11.85;2.88;;;5.50;99.90;;;;;;4945980;28;20133;-64
2023/01/16 00:28:55;;;;;;;13.85;3.10;;;5.50;99.90;;;;;;4953747;28;20110;-63
2023/01/16 00:31:26;;;;;;;7.10;2.33;;;5.50;99.90;;;;;;4953958;28;20505;-64
2023/01/16 00:33:53;;;;;;;5.07;1.77;;;5.50;99.90;;;;;;4949097;28;20144;-65
2023/01/16 00:36:20;;;;;;;13.57;3.58;;;5.50;99.90;;;;;;4953503;28;22061;-68
2023/01/16 00:38:47;;;;;;;6.15;1.73;;;5.50;99.90;;;;;;4952904;28;20074;-66
2023/01/16 00:41:14;;;;;;;10.48;2.40;;;5.50;99.90;;;;;;4951118;28;20138;-64
2023/01/16 00:43:41;;;;;;;8.13;2.72;;;5.50;99.90;;;;;;4950899;28;20065;-69
2023/01/16 00:46:08;;;;;;;8.50;2.28;;;5.50;99.90;;;;;;4951832;28;20499;-65
2023/01/16 00:48:35;;;;;;;6.47;2.00;;;5.40;99.90;;;;;;4952771;28;20074;-64
2023/01/16 00:51:01;;;;;;;5.75;2.28;;;5.50;99.90;;;;;;4954670;28;20075;-64
2023/01/16 00:53:28;;;;;;;9.23;2.65;;;5.40;99.90;;;;;;4951255;28;20050;-65
2023/01/16 00:55:55;;;;;;;9.70;2.17;;;5.50;99.90;;;;;;4950067;28;20062;-68
2023/01/16 00:58:22;;;;;;;8.00;2.03;;;5.40;99.90;;;;;;4953937;28;20432;-64
2023/01/16 01:00:49;;;;;;;9.23;2.75;;;5.40;99.90;;;;;;4954577;28;20154;-66
2023/01/16 01:03:16;;;;;;;16.20;2.88;;;5.40;99.90;;;;;;4954551;28;20493;-66
2023/01/16 01:05:43;;;;;;;3.97;2.50;;;5.40;99.90;;;;;;4955786;28;20047;-64
2023/01/16 01:08:10;;;;;;;9.82;3.08;;;5.40;99.90;;;;;;4952411;28;20090;-66
2023/01/16 01:10:38;;;;;;;12.10;2.58;;;5.50;99.90;;;;;;4952081;28;20046;-67
2023/01/16 01:13:06;;;;;;;8.70;2.65;;;5.50;99.90;;;;;;4955786;28;20046;-64
2023/01/16 01:15:33;;;;;;;11.57;3.88;;;5.40;99.90;;;;;;4951529;28;20051;-65
2023/01/16 01:18:00;;;;;;;13.30;2.65;;;5.40;99.90;;;;;;4954553;28;20161;-64
2023/01/16 01:20:39;;;;;;;8.82;2.10;;;5.50;99.90;;;;;;4951862;28;20073;-67
2023/01/16 01:23:06;;;;;;;9.95;1.77;;;5.50;99.90;;;;;;4953166;28;20050;-66
2023/01/16 01:25:33;;;;;;;7.75;1.50;;;5.40;99.90;;;;;;4948285;28;20590;-65
2023/01/16 01:27:59;;;;;;;8.45;1.92;;;5.50;99.90;;;;;;4953655;28;20137;-67
2023/01/16 01:30:26;;;;;;;8.52;3.60;;;5.50;99.90;;;;;;4949766;28;20118;-65
2023/01/16 01:32:53;;;;;;;11.50;1.52;;;5.40;99.90;;;;;;4951775;28;20054;-64
2023/01/16 01:35:20;;;;;;;7.93;2.30;;;5.50;99.90;;;;;;4955348;28;20061;-65
2023/01/16 01:37:47;;;;;;;5.47;1.30;;;5.50;99.90;;;;;;4949493;28;20077;-67
2023/01/16 01:40:14;;;;;;;9.02;2.80;;;5.50;99.90;;;;;;4951226;28;20142;-68
2023/01/16 01:42:46;;;;;;;9.82;1.73;;;5.50;99.90;;;;;;4949886;28;20054;-68
2023/01/16 01:45:21;;;;;;;9.50;2.58;;;5.50;99.90;;;;;;4953054;28;20062;-65
2023/01/16 01:48:00;;;;;;;7.88;2.30;;;5.50;99.90;;;;;;4950457;28;20122;-65
2023/01/16 01:50:33;;;;;;;6.32;1.33;;;5.50;99.90;;;;;;4952750;28;20141;-66
2023/01/16 01:53:03;;;;;;;5.85;2.13;;;5.50;99.90;;;;;;4956456;28;20481;-68
2023/01/16 01:55:30;;;;;;;4.88;0.95;;;5.50;99.90;;;;;;4953297;28;20100;-66
2023/01/16 01:58:00;;;;;;;3.10;0.80;;;5.50;99.90;;;;;;4946474;28;20051;-64
2023/01/16 02:00:28;;;;;;;2.95;0.93;;;5.50;99.90;;;;;;4952220;28;20090;-67
2023/01/16 02:03:02;;;;;;;6.43;1.27;;;5.50;99.90;;;;;;4954235;28;20051;-68
2023/01/16 02:05:35;;;;;;;4.20;1.40;;;5.50;99.90;;;;;;4952015;28;20055;-66
2023/01/16 02:08:03;;;;;;;2.67;0.98;;;5.50;99.90;;;;;;4950854;28;20150;-66
2023/01/16 02:10:52;;;;;;;3.83;1.27;;;5.50;99.90;;;;;;4951756;28;20059;-66
2023/01/16 02:13:18;;;;;;;4.43;0.93;;;5.50;99.90;;;;;;4948947;28;20141;-66
2023/01/16 02:21:48;;;;;;;3.80;0.52;;;5.30;99.90;;;;;;4954325;28;20065;-68
2023/01/16 02:25:09;;;;;;;9.48;1.73;;;5.30;99.90;;;;;;4946933;28;20046;-64
2023/01/16 02:27:38;;;;;;;4.93;1.63;;;5.20;99.90;;;;;;4940351;28;20067;-65
2023/01/16 02:30:19;;;;;;;1.33;0.43;;;5.20;99.90;;;;;;4943677;28;20055;-68
2023/01/16 02:33:05;;;;;;;2.83;1.25;;;5.20;99.90;;;;;;4951934;28;20361;-66
2023/01/16 02:35:37;;;;;;;4.68;0.70;;;5.20;99.90;;;;;;4950065;28;20126;-65
2023/01/16 02:38:15;;;;;;;1.63;0.90;;;5.20;99.90;;;;;;4945381;28;20050;-64
2023/01/16 02:41:01;;;;;;;7.60;1.52;;;5.10;99.90;;;;;;4951081;28;20126;-65
2023/01/16 02:43:50;;;;;;;2.47;0.90;;;5.20;99.90;;;;;;4954796;28;20050;-64
2023/01/16 02:46:34;;;;;;;3.92;1.20;;;5.10;99.90;;;;;;4947771;28;20051;-66
2023/01/16 02:49:21;;;;;;;4.72;0.52;;;5.10;99.90;;;;;;4949750;28;20605;-68
2023/01/16 02:52:03;;;;;;;3.15;0.70;;;5.10;99.90;;;;;;4949144;28;20138;-65
2023/01/16 02:54:40;;;;;;;4.95;1.08;;;5.10;99.90;;;;;;4947048;28;20557;-66
2023/01/16 02:57:12;;;;;;;3.92;1.33;;;5.00;99.90;;;;;;4945236;28;20069;-67
2023/01/16 02:59:42;;;;;;;3.45;0.60;;;5.00;99.90;;;;;;4950148;28;20839;-64
2023/01/16 03:02:09;;;;;;;4.57;1.02;;;5.00;99.90;;;;;;4945848;28;20141;-65
2023/01/16 03:04:51;;;;;;;5.30;2.05;;;5.00;99.90;;;;;;4954993;28;20420;-68
2023/01/16 03:07:39;;;;;;;5.25;1.38;;;5.00;99.90;;;;;;4911422;28;1089715;-64
2023/01/16 03:10:47;;;;;;;3.10;0.70;;;5.00;99.90;;;;;;4950843;28;20417;-64
2023/01/16 03:13:35;;;;;;;12.52;2.28;;;5.00;99.90;;;;;;4924451;28;20091;-65
2023/01/16 03:16:05;;;;;;;7.15;1.10;;;5.00;99.90;;;;;;4950120;28;20117;-65
2023/01/16 03:18:36;;;;;;;6.55;1.40;;;5.00;99.90;;;;;;4960686;28;20453;-66
2023/01/16 03:21:08;;;;;;;;;;;5.00;99.90;;;;;;4945841;28;20091;-66
2023/01/16 03:24:03;;;;;;;6.22;1.23;;;5.00;99.90;;;;;;4947180;28;19930;-66
2023/01/16 03:26:46;;;;;;;3.13;1.90;;;5.00;99.90;;;;;;4943091;28;20081;-64
2023/01/16 03:29:53;;;;;;;8.00;2.47;;;5.00;99.90;;;;;;4949053;28;20055;-68
2023/01/16 03:32:40;;;;;;;9.93;1.55;;;5.00;99.90;;;;;;4946640;28;20109;-70
2023/01/16 03:35:14;;;;;;;5.15;1.23;;;4.90;99.90;;;;;;4948609;28;20044;-67
2023/01/16 03:37:49;;;;;;;7.82;1.90;;;4.90;99.90;;;;;;4944030;28;20553;-66
2023/01/16 03:40:22;;;;;;;11.00;1.23;;;4.80;99.90;;;;;;4948780;28;20245;-65
2023/01/16 03:43:08;;;;;;;13.90;3.40;;;4.80;99.90;;;;;;4950660;28;20531;-65
2023/01/16 03:45:47;;;;;;;8.98;1.42;;;4.90;99.90;;;;;;4949138;28;20126;-69
2023/01/16 03:48:24;;;;;;;6.72;1.50;;;4.90;99.90;;;;;;4942864;28;20051;-65
2023/01/16 03:50:54;;;;;;;5.78;1.27;;;4.90;99.90;;;;;;4954915;28;20153;-66
2023/01/16 03:53:26;;;;;;;8.55;1.20;;;4.90;99.90;;;;;;4952528;28;20952;-68
2023/01/16 03:56:10;;;;;;;5.97;1.65;;;4.90;99.90;;;;;;4951768;28;20349;-66
2023/01/16 03:58:51;;;;;;;5.45;1.60;;;4.90;99.90;;;;;;4952590;28;20067;-65
2023/01/16 04:01:29;;;;;;;6.50;1.30;;;4.90;99.90;;;;;;4950058;28;20062;-64
2023/01/16 04:04:14;;;;;;;7.40;1.83;;;4.90;99.90;;;;;;4944563;28;20047;-66
2023/01/16 04:07:04;;;;;;;9.98;1.77;;;4.90;99.90;;;;;;4948373;28;20149;-65
2023/01/16 04:09:36;;;;;;;10.07;2.65;;;4.80;99.90;;;;;;4949779;28;20055;-67
2023/01/16 04:12:08;;;;;;;7.68;1.98;;;4.80;99.90;;;;;;4947535;28;20056;-65
2023/01/16 04:14:36;;;;;;;7.88;2.08;;;4.80;99.90;;;;;;4952351;28;20057;-64
2023/01/16 04:17:04;;;;;;;8.45;2.50;;;4.80;99.90;;;;;;4954476;28;20055;-65
2023/01/16 04:19:32;;;;;;;10.10;2.10;;;4.80;99.90;;;;;;4946368;28;20055;-67
2023/01/16 04:22:04;;;;;;;15.50;3.15;;;4.80;99.90;;;;;;4947340;28;20118;-64
2023/01/16 04:24:31;;;;;;;7.75;1.73;;;4.80;99.90;;;;;;4949174;28;20054;-64
2023/01/16 04:26:58;;;;;;;5.68;2.85;;;4.90;99.90;;;;;;4948768;28;20047;-65
2023/01/16 04:29:25;;;;;;;10.40;3.97;;;4.90;99.90;;;;;;4966473;28;20039;-64
2023/01/16 04:31:52;;;;;;;12.60;2.58;;;4.90;99.90;;;;;;4945986;28;20046;-65
2023/01/16 04:34:19;;;;;;;7.10;1.42;;;4.90;99.90;;;;;;4949468;28;20051;-68
2023/01/16 04:36:46;;;;;;;12.82;3.03;;;4.90;99.90;;;;;;4944551;28;20571;-66
2023/01/16 04:39:13;;;;;;;12.45;3.65;;;4.90;99.90;;;;;;4956303;28;20043;-65
2023/01/16 04:41:40;;;;;;;8.65;2.80;;;4.90;99.90;;;;;;4952992;28;20059;-68
2023/01/16 04:44:09;;;;;;;13.40;3.22;;;4.80;99.90;;;;;;4948647;28;20047;-64
2023/01/16 04:46:38;;;;;;;13.25;2.65;;;4.80;99.90;;;;;;4953261;28;20050;-65
2023/01/16 04:49:05;;;;;;;7.63;1.75;;;4.80;99.90;;;;;;4955382;28;20051;-72
2023/01/16 04:51:33;;;;;;;10.93;1.67;;;4.80;99.90;;;;;;4951778;28;20043;-70
2023/01/16 04:54:00;;;;;;;8.77;2.20;;;4.80;99.90;;;;;;4951771;28;20121;-65
2023/01/16 04:56:27;;;;;;;13.65;3.20;;;4.70;99.90;;;;;;4955344;28;20047;-68
2023/01/16 04:58:54;;;;;;;9.05;1.85;;;4.70;99.90;;;;;;4956166;28;20135;-65
2023/01/16 05:01:22;;;;;;;10.15;2.28;;;4.80;99.90;;;;;;4956978;28;20057;-65
2023/01/16 05:03:49;;;;;;;11.10;2.88;;;4.70;99.90;;;;;;4953884;28;20055;-69
2023/01/16 05:06:17;;;;;;;10.45;2.80;;;4.70;99.90;;;;;;4955159;28;20102;-68
2023/01/16 05:08:43;;;;;;;6.85;2.63;;;4.70;99.90;;;;;;4949557;28;20062;-66
2023/01/16 05:11:10;;;;;;;11.45;2.42;;;4.70;99.90;;;;;;4953252;28;20078;-68
2023/01/16 05:13:37;;;;;;;11.00;2.60;;;4.70;99.90;;;;;;4954878;28;20047;-69
2023/01/16 05:16:05;;;;;;;8.68;2.67;;;4.70;99.90;;;;;;4951279;28;20134;-71
2023/01/16 05:18:32;;;;;;;16.02;3.30;;;4.70;99.90;;;;;;4946085;28;20117;-68
2023/01/16 05:21:00;;;;;;;13.38;2.40;;;4.70;99.90;;;;;;4955549;28;20054;-66
2023/01/16 05:23:27;;;;;;;11.68;2.38;;;4.60;99.90;;;;;;4953418;28;20134;-70
2023/01/16 05:25:54;;;;;;;15.38;2.95;;;4.70;99.90;;;;;;4949584;28;20079;-72
2023/01/16 05:28:21;;;;;;;8.77;1.70;;;4.70;99.90;;;;;;4951433;28;20054;-66
2023/01/16 05:30:48;;;;;;;11.43;3.72;;;4.60;99.90;;;;;;4951808;28;20042;-66
2023/01/16 05:33:16;;;;;;;11.90;3.10;;;4.70;99.90;;;;;;4952951;28;20456;-69
2023/01/16 05:35:44;;;;;;;17.52;2.90;;;4.60;99.90;;;;;;4951972;28;20047;-68
2023/01/16 05:38:11;;;;;;;13.60;4.25;;;4.70;99.90;;;;;;4954843;28;20150;-72
2023/01/16 05:40:37;;;;;;;13.70;2.05;;;4.70;99.90;;;;;;4950694;28;20058;-71
2023/01/16 05:43:04;;;;;;;16.92;2.00;;;4.70;99.90;;;;;;4946410;28;20067;-69
2023/01/16 05:45:31;;;;;;;17.75;2.97;;;4.60;99.90;;;;;;4953439;28;20063;-66
2023/01/16 05:47:58;;;;;;;6.95;2.70;;;4.70;99.90;;;;;;4949535;28;20051;-71
2023/01/16 05:50:25;;;;;;;23.95;5.38;;;4.70;99.90;;;;;;4954142;28;20047;-65
2023/01/16 05:52:53;;;;;;;15.65;2.97;;;4.70;99.90;;;;;;4952775;28;20047;-66
2023/01/16 05:55:20;;;;;;;15.18;2.85;;;4.70;99.90;;;;;;4950014;28;20043;-70
2023/01/16 05:57:46;;;;;;;13.23;3.75;;;4.70;99.90;;;;;;4947981;28;20553;-64
2023/01/16 06:00:14;;;;;;;13.20;3.60;;;4.80;99.90;;;;;;4953095;28;20046;-69
2023/01/16 06:02:41;;;;;;;14.93;3.33;;;4.80;99.90;;;;;;4954230;28;20051;-67
2023/01/16 06:05:08;;;;;;;20.65;4.53;;;4.80;99.90;;;;;;4957813;28;20063;-65
2023/01/16 06:07:35;;;;;;;18.77;3.97;;;4.80;99.90;;;;;;4954858;28;20573;-64
2023/01/16 06:10:02;;;;;;;16.08;4.05;;;4.80;99.90;;;;;;4958058;28;20436;-64
2023/01/16 06:12:31;;;;;;;18.98;3.08;;;4.80;99.90;;;;;;4942552;28;20115;-67
2023/01/16 06:14:58;;;;;;;13.77;4.07;;;4.80;99.90;;;;;;4951177;28;20070;-65
2023/01/16 06:17:25;;;;;;;17.15;4.43;;;4.80;99.90;;;;;;4950764;28;20054;-70
2023/01/16 06:19:52;;;;;;;18.52;3.33;;;4.80;99.90;;;;;;4946528;28;23736;-65
2023/01/16 06:22:20;;;;;;;21.98;3.88;;;4.80;99.90;;;;;;4954000;28;20155;-67
2023/01/16 06:24:47;;;;;;;14.10;4.07;;;4.90;99.90;;;;;;4948913;28;20184;-69
2023/01/16 06:27:13;;;;;;;11.00;2.85;;;4.90;99.90;;;;;;4956586;28;20042;-66
2023/01/16 06:29:41;;;;;;;16.55;4.10;;;4.90;99.90;;;;;;4943698;28;20059;-65
2023/01/16 06:32:08;;;;;;;8.45;3.42;;;4.90;99.90;;;;;;4955804;28;20149;-69
2023/01/16 06:34:35;;;;;;;21.13;4.88;;;4.90;99.90;;;;;;4954052;28;20078;-66
2023/01/16 06:37:02;;;;;;;14.10;3.50;;;4.90;99.90;;;;;;4950546;28;20086;-65
2023/01/16 06:39:29;;;;;;;19.23;5.05;;;4.90;99.90;;;;;;4947143;28;20047;-65
2023/01/16 06:41:56;;;;;;;15.65;4.72;;;4.90;99.90;;;;;;4953474;28;20043;-68
2023/01/16 06:44:23;;;;;;;14.82;5.35;;;4.90;99.90;;;;;;4944094;28;20061;-64
2023/01/16 06:46:50;;;;;;;9.85;3.88;;;5.00;99.90;;;;;;4950623;28;20082;-66
2023/01/16 06:49:16;;;;;;;18.13;4.80;;;5.00;99.90;;;;;;4948826;28;20121;-65
2023/01/16 06:51:43;;;;;;;16.98;4.20;;;4.90;99.90;;;;;;4951750;28;20765;-65
2023/01/16 06:54:10;;;;;;;17.80;5.22;;;5.00;99.90;;;;;;4951494;28;20079;-70
2023/01/16 06:56:37;;;;;;;26.13;10.10;;;5.00;99.90;;;;;;4949995;28;20051;-66
2023/01/16 06:59:04;;;;;;;19.48;8.45;;;5.00;99.90;;;;;;4952244;28;20051;-67
2023/01/16 07:01:31;;;;;;;16.13;4.97;;;4.90;99.90;;;;;;4948747;28;20058;-71
2023/01/16 07:03:58;;;;;;;11.57;4.28;;;4.90;99.90;;;;;;4947704;28;20110;-65
2023/01/16 07:06:25;;;;;;;20.63;6.43;;;4.90;99.90;;;;;;4948825;28;20155;-66
2023/01/16 07:08:52;;;;;;;20.50;5.18;;;4.90;99.90;;;;;;4948103;28;20405;-68
2023/01/16 07:11:19;;;;;;;17.50;4.85;;;4.90;99.90;;;;;;4950821;28;20047;-68
2023/01/16 07:13:46;;;;;;;19.77;5.25;;;4.90;99.90;;;;;;4946120;28;20170;-65
2023/01/16 07:24:37;;;;;;;16.75;5.05;;;4.90;99.90;;;;;;4950302;28;20070;-64
2023/01/16 07:27:08;;;;;;;17.02;3.95;;;4.90;99.90;;;;;;4947132;28;20055;-65
2023/01/16 07:29:37;;;;;;;22.73;7.20;;;4.80;99.90;;;;;;4948312;28;20062;-70
2023/01/16 07:32:04;;;;;;;14.45;3.00;;;4.80;99.90;;;;;;4941469;28;20134;-69
2023/01/16 07:34:31;;;;;;;13.18;3.10;;;4.80;99.90;;;;;;4948942;28;20066;-67
2023/01/16 07:36:58;;;;;;;20.88;5.95;;;4.80;99.90;;;;;;4945898;28;20154;-64
2023/01/16 07:39:25;;;;;;;19.63;5.43;;;4.80;99.90;;;;;;4947719;28;20051;-69
2023/01/16 07:41:52;;;;;;;17.67;4.45;;;4.80;99.90;;;;;;4946248;28;20050;-68
2023/01/16 07:44:24;;;;;;;14.20;5.10;;;4.80;99.90;;;;;;4949077;28;20047;-66
2023/01/16 07:46:51;;;;;;;12.35;3.95;;;4.80;99.90;;;;;;4950778;28;20145;-67
2023/01/16 07:49:17;;;;;;;16.38;3.55;;;4.80;99.90;;;;;;4942341;28;20065;-69
2023/01/16 07:51:44;;;;;;;20.48;3.00;;;4.80;99.90;;;;;;4949367;28;20517;-65
2023/01/16 07:54:12;;;;;;;16.33;5.75;;;4.80;99.90;;;;;;4947485;28;20058;-66
2023/01/16 07:56:39;;;;;;;16.27;4.65;;;4.80;99.90;;;;;;4948464;28;20047;-68
2023/01/16 07:59:06;;;;;;;11.07;4.13;;;4.80;99.90;;;;;;4949043;28;20052;-67
2023/01/16 08:01:34;;;;;;;15.00;5.82;;;4.80;99.90;;;;;;4943825;28;20055;-66
2023/01/16 08:04:01;;;;;;;12.30;4.53;;;4.80;99.90;;;;;;4944096;28;20051;-66
2023/01/16 08:06:28;;;;;;;9.43;3.88;;;4.80;99.90;;;;;;4951633;28;20114;-65
2023/01/16 08:08:54;;;;;;;14.02;5.18;;;4.80;99.90;;;;;;4944720;28;20074;-65
2023/01/16 08:11:38;;;;;;;9.18;3.83;;;4.70;99.90;;;;;;4946962;28;20081;-66
2023/01/16 08:14:07;;;;;;;10.68;4.60;;;4.70;99.90;;;;;;4951284;28;20070;-67
2023/01/16 08:16:34;;;;;;;12.13;5.05;;;4.70;99.90;;;;;;4952749;28;20501;-66
2023/01/16 08:19:01;;;;;;;13.77;3.25;;;4.70;99.90;;;;;;4950592;28;20135;-65
2023/01/16 08:21:28;;;;;;;19.02;4.00;;;4.60;99.90;;;;;;4953022;28;20053;-68
2023/01/16 08:23:55;;;;;;;12.10;5.35;;;4.70;99.90;;;;;;4950454;28;20085;-65
2023/01/16 08:26:22;;;;;;;12.73;5.20;;;4.60;99.90;;;;;;4949572;28;20691;-68
2023/01/16 08:28:49;;;;;;;11.77;3.67;;;4.70;99.90;;;;;;4951714;28;20039;-68
2023/01/16 08:31:17;;;;;;;23.42;3.42;;;4.70;99.90;;;;;;4945992;28;20133;-64
2023/01/16 08:33:46;;;;;;;12.70;2.88;;;4.70;99.90;;;;;;4948878;28;20520;-65
2023/01/16 08:36:15;;;;;;;18.75;4.38;;;4.70;99.90;;;;;;4947261;28;20050;-66
2023/01/16 08:38:43;;;;;;;18.92;4.00;;;4.70;99.90;;;;;;4950009;28;20051;-66
2023/01/16 08:51:21;;;;;;;13.27;4.43;;;4.70;99.90;;;;;;4952531;28;20138;-67
2023/01/16 08:52:24;;;;;;;17.05;2.45;;;4.70;99.90;;;;;;4945427;28;20054;-65
2023/01/16 08:54:50;;;;;;;14.55;2.47;;;4.70;99.90;;;;;;4949565;28;20126;-66
2023/01/16 08:57:17;;;;;;;18.77;3.05;;;4.70;99.90;;;;;;4954225;28;20505;-66
2023/01/16 08:59:44;;;;;;;14.82;3.70;;;4.70;99.90;;;;;;4953990;28;20059;-66
2023/01/16 09:02:12;;;;;;;15.65;1.88;;;4.80;99.90;;;;;;4952448;28;20468;-64
2023/01/16 09:04:39;;;;;;;12.70;3.03;;;4.80;99.90;;;;;;4949690;28;20055;-69
2023/01/16 09:07:06;;;;;;;17.45;2.65;;;4.80;99.90;;;;;;4949973;28;20051;-67
2023/01/16 09:09:34;;;;;;;8.88;1.80;;;4.80;99.90;;;;;;4946961;28;20073;-65
2023/01/16 09:14:46;;;;;;;8.95;2.42;;;4.80;99.90;;;;;;4948354;28;20141;-65
2023/01/16 09:17:13;;;;;;;17.35;2.83;;;4.80;99.90;;;;;;4950483;28;20062;-67
2023/01/16 09:19:40;;;;;;;15.32;2.97;;;4.80;99.90;;;;;;4947149;28;20047;-65
2023/01/16 09:22:07;;;;;;;13.80;3.10;;;4.80;99.90;;;;;;4948565;28;20075;-66
2023/01/16 09:24:35;;;;;;;13.45;3.75;;;4.80;99.90;;;;;;4947332;28;20040;-66
2023/01/16 09:27:02;;;;;;;13.00;3.17;;;4.80;99.90;;;;;;4949963;28;20123;-67
2023/01/16 09:29:30;;;;;;;18.15;4.18;;;4.80;99.90;;;;;;4949307;28;20062;-65
2023/01/16 09:31:58;;;;;;;16.00;2.92;;;4.80;99.90;;;;;;4948879;28;20535;-67
2023/01/16 09:34:25;;;;;;;9.70;2.35;;;4.90;99.90;;;;;;4949459;28;20043;-67
2023/01/16 09:36:51;;;;;;;13.25;2.83;;;4.90;99.90;;;;;;4950175;28;20154;-67
2023/01/16 09:39:18;;;;;;;14.68;2.40;;;4.90;99.90;;;;;;4948783;28;20200;-66
2023/01/16 09:44:51;;;;;;;23.00;3.53;;;5.00;99.90;;;;;;4946935;28;20142;-66
2023/01/16 09:47:23;;;;;;;10.65;2.55;;;5.00;99.90;;;;;;4950930;28;20093;-66
2023/01/16 09:49:59;;;;;;;10.18;4.63;;;5.00;99.90;;;;;;4952582;28;20091;-66
2023/01/16 10:01:10;;;;;;;;;;;4.80;99.90;;;;;;4948761;28;20113;-68
2023/01/16 10:03:44;;;;;;;16.50;2.45;;;4.80;99.90;;;;;;4946450;28;20352;-67
2023/01/16 10:06:20;;;;;;;17.00;2.55;;;4.80;99.90;;;;;;4954693;28;20055;-64
2023/01/16 10:09:06;;;;;;;11.48;2.15;;;4.80;99.90;;;;;;4946718;28;20480;-69
2023/01/16 10:11:45;;;;;;;12.13;2.85;;;4.80;99.90;;;;;;4944980;28;20054;-66
2023/01/16 10:14:23;;;;;;;12.98;3.55;;;4.80;99.90;;;;;;4948218;28;20051;-67
2023/01/16 10:17:18;;;;;;;14.55;5.15;;;4.80;99.90;;;;;;4951807;28;20173;-66
2023/01/16 10:20:10;;;;;;;23.95;4.05;;;4.80;99.90;;;;;;4949535;28;20050;-66
2023/01/16 10:22:58;;;;;;;32.80;7.28;;;4.80;99.90;;;;;;4953151;28;20618;-70
2023/01/16 10:25:37;;;;;;;14.57;4.13;;;4.80;99.90;;;;;;4952583;28;20114;-64
2023/01/16 10:28:20;;;;;;;13.93;2.72;;;4.80;99.90;;;;;;4943442;28;20461;-65
2023/01/16 10:30:53;;;;;;;9.45;2.25;;;4.80;99.90;;;;;;4948242;28;20051;-67
2023/01/16 10:33:55;;;;;;;19.42;3.15;;;4.80;99.90;;;;;;4951098;28;20044;-65
2023/01/16 10:36:27;;;;;;;12.32;2.13;;;4.80;99.90;;;;;;4949928;28;20133;-67
2023/01/16 10:38:56;;;;;;;5.07;2.50;;;4.80;99.90;;;;;;4950037;28;20125;-67
2023/01/16 10:50:23;;;;;;;6.40;1.52;;;4.60;99.90;;;;;;4950193;28;20174;-65
2023/01/16 10:53:05;;;;;;;13.95;2.70;;;4.60;99.90;;;;;;4948388;28;20047;-64
2023/01/16 10:55:35;;;;;;;11.73;2.88;;;4.60;99.90;;;;;;4949972;28;20246;-67
2023/01/16 10:58:25;;;;;;;12.95;2.45;;;4.50;99.90;;;;;;4949518;28;20136;-66
2023/01/16 11:01:02;;;;;;;13.77;3.40;;;4.50;99.90;;;;;;4946549;28;20500;-64
2023/01/16 11:03:36;;;;;;;14.50;4.00;;;4.60;99.90;;;;;;4953772;28;20076;-68
2023/01/16 11:06:26;;;;;;;11.73;2.72;;;4.60;99.90;;;;;;4946903;28;20051;-65
2023/01/16 11:09:13;;;;;;;14.82;2.65;;;4.60;99.90;;;;;;4949017;28;20053;-65
2023/01/16 11:20:21;;;;;;;9.60;3.90;;;4.80;99.90;;;;;;4944260;28;20438;-70
2023/01/16 11:22:58;;;;;;;13.95;3.75;;;4.80;99.90;;;;;;4947070;28;20047;-66
2023/01/16 11:25:27;;;;;;;13.57;2.80;;;4.80;99.90;;;;;;4947372;28;20063;-65
2023/01/16 11:27:57;;;;;;;20.60;4.93;;;4.80;99.90;;;;;;4945893;28;20449;-66
2023/01/16 11:30:39;;;;;;;7.70;2.85;;;4.70;99.90;;;;;;4951987;28;20345;-72
2023/01/16 11:33:21;;;;;;;20.83;2.67;;;4.70;99.90;;;;;;4949242;28;20057;-66
2023/01/16 11:35:56;;;;;;;12.00;2.25;;;4.70;99.90;;;;;;4951608;28;20154;-66
2023/01/16 11:38:26;;;;;;;15.02;2.75;;;4.70;99.90;;;;;;4949886;28;20553;-69
2023/01/16 11:40:57;;;;;;;23.23;3.53;;;4.70;99.90;;;;;;4952945;28;20067;-66
2023/01/16 11:46:30;;;;;;;15.45;3.25;;;4.70;99.90;;;;;;4948488;28;20818;-65
2023/01/16 11:49:14;;;;;;;9.50;3.05;;;4.70;99.90;;;;;;4950451;28;20057;-64
2023/01/16 11:51:41;;;;;;;25.27;3.17;;;4.70;99.90;;;;;;4949434;28;20047;-69
2023/01/16 11:54:16;;;;;;;8.90;2.28;;;4.70;99.90;;;;;;4956713;28;20043;-66
2023/01/16 11:56:46;;;;;;;9.90;2.80;;;4.70;99.90;;;;;;4957680;28;20538;-68
2023/01/16 11:59:28;;;;;;;;;;;4.70;99.90;;;;;;4950664;28;20043;-68
2023/01/16 12:02:20;;;;;;;7.72;2.78;;;4.70;99.90;;;;;;4950258;28;19934;-65
2023/01/16 12:08:21;;;;;;;10.70;2.78;;;4.80;99.90;;;;;;4949493;28;20127;-64
2023/01/16 12:10:48;;;;;;;11.10;1.92;;;4.80;99.90;;;;;;4953976;28;20051;-65
2023/01/16 12:16:13;;;;;;;8.98;2.00;;;4.80;99.90;;;;;;4951596;28;20450;-65
2023/01/16 12:18:55;;;;;;;11.48;2.50;;;4.80;99.90;;;;;;4944631;28;20474;-65
2023/01/16 12:21:26;;;;;;;12.70;3.35;;;4.80;99.90;;;;;;4956361;28;20327;-65
2023/01/16 12:24:15;;;;;;;12.43;3.35;;;4.90;99.90;;;;;;4952975;28;20123;-67
2023/01/16 12:27:28;;;;;;;10.73;3.28;;;4.90;99.90;;;;;;4951156;28;20059;-67
2023/01/16 12:30:17;;;;;;;17.50;3.63;;;4.90;99.90;;;;;;4907401;28;20073;-64
2023/01/16 12:33:13;;;;;;;12.13;2.58;;;4.90;99.90;;;;;;4947853;28;20079;-69
2023/01/16 12:35:48;;;;;;;13.13;2.05;;;4.90;99.90;;;;;;4946242;28;20394;-67
2023/01/16 12:38:18;;;;;;;10.63;2.53;;;5.00;99.90;;;;;;4952899;28;20593;-65
2023/01/16 12:43:17;;;;;;;;;;;5.00;99.90;;;;;;4954222;28;20070;-65
2023/01/16 12:44:03;;;;;;;10.85;4.97;;;4.90;99.90;;;;;;4954038;28;19930;-66
2023/01/16 12:47:00;;;;;;;9.02;2.08;;;5.00;99.90;;;;;;4956227;28;20047;-67
2023/01/16 12:49:27;;;;;;;12.35;2.97;;;5.00;99.90;;;;;;4947649;28;20071;-64
2023/01/16 12:51:57;;;;;;;12.88;2.92;;;5.00;99.90;;;;;;4951914;28;20143;-68
2023/01/16 12:54:37;;;;;;;4.70;2.20;;;5.00;99.90;;;;;;4953846;28;20587;-68
2023/01/16 12:57:07;;;;;;;13.60;2.42;;;5.00;99.90;;;;;;4950576;28;20344;-64
2023/01/16 12:59:37;;;;;;;16.05;2.05;;;5.00;99.90;;;;;;4951611;28;20135;-65
2023/01/16 13:02:15;;;;;;;6.65;3.10;;;5.00;99.90;;;;;;4955319;28;20134;-66
2023/01/16 13:04:47;;;;;;;8.52;2.03;;;4.90;99.90;;;;;;4951192;28;20164;-66
2023/01/16 13:07:16;;;;;;;13.50;2.35;;;4.90;99.90;;;;;;4953543;28;20067;-66
2023/01/16 13:09:43;;;;;;;9.60;2.08;;;4.90;99.90;;;;;;4948726;28;20067;-70
2023/01/16 13:15:20;;;;;;;5.82;2.00;;;4.90;99.90;;;;;;4946232;28;20224;-64
2023/01/16 13:17:51;;;;;;;14.63;2.38;;;4.90;99.90;;;;;;4955940;28;20054;-64
2023/01/16 13:20:21;;;;;;;5.85;2.00;;;4.80;99.90;;;;;;4953658;28;20087;-67
2023/01/16 13:22:59;;;;;;;7.50;1.63;;;4.80;99.90;;;;;;4953586;28;20129;-64
2023/01/16 13:25:35;;;;;;;11.82;2.15;;;4.80;99.90;;;;;;4954184;28;20074;-65
2023/01/16 13:28:15;;;;;;;10.73;3.67;;;4.80;99.90;;;;;;4945905;28;20617;-65
2023/01/16 13:30:41;;;;;;;8.30;3.40;;;4.80;99.90;;;;;;4946767;28;20047;-66
2023/01/16 13:33:16;;;;;;;13.43;3.22;;;4.70;99.90;;;;;;4941274;28;20159;-65
2023/01/16 13:36:05;;;;;;;13.60;4.05;;;4.70;99.90;;;;;;4949665;28;20118;-67
2023/01/16 13:38:56;;;;;;;10.90;3.22;;;4.70;99.90;;;;;;4948960;28;20141;-65
2023/01/16 13:41:48;;;;;;;13.90;3.33;;;4.60;99.90;;;;;;4945460;28;20165;-65
2023/01/16 13:47:10;;;;;;;12.05;2.70;;;4.50;99.90;;;;;;4951346;28;20054;-65
2023/01/16 13:49:38;;;;;;;8.70;2.20;;;4.50;99.90;;;;;;4948481;28;20066;-65
2023/01/16 13:52:18;;;;;;;13.15;3.92;;;4.50;99.90;;;;;;4951569;28;20039;-66
2023/01/16 13:54:47;;;;;;;;;;;4.40;99.90;;;;;;4934806;28;20044;-68
2023/01/16 13:57:19;;;;;;;10.90;3.83;;;4.40;99.90;;;;;;4947562;28;19953;-65
2023/01/16 13:59:57;;;;;;;9.27;2.45;;;4.40;99.90;;;;;;4946544;28;20058;-64
2023/01/16 14:02:45;;;;;;;10.73;3.97;;;4.40;99.90;;;;;;4947883;28;20083;-66
2023/01/16 14:05:35;;;;;;;11.85;2.28;;;4.30;99.90;;;;;;4947670;28;20067;-71
2023/01/16 14:11:38;;;;;;;9.45;2.28;;;4.20;99.90;;;;;;4941108;28;20047;-68
2023/01/16 14:17:21;;;;;;;15.02;3.13;;;4.20;99.90;;;;;;4946612;28;20058;-67
2023/01/16 14:19:56;;;;;;;7.03;3.15;;;4.10;99.90;;;;;;4946508;28;20477;-64
2023/01/16 14:24:58;;;;;;;15.07;4.53;;;4.10;99.90;;;;;;4942931;28;20470;-64
2023/01/16 14:27:36;;;;;;;7.78;2.83;;;4.00;99.90;;;;;;4945519;28;20392;-64
2023/01/16 14:30:25;;;;;;;11.27;2.90;;;3.90;99.90;;;;;;4943517;28;20054;-69
2023/01/16 14:32:56;;;;;;;8.68;2.85;;;3.90;99.90;;;;;;4947383;28;20466;-64
2023/01/16 14:35:28;;;;;;;10.05;2.70;;;3.80;99.90;;;;;;4949831;28;20059;-66
2023/01/16 14:38:00;;;;;;;11.30;2.90;;;3.80;99.90;;;;;;4945944;28;20058;-68
2023/01/16 14:55:50;;;;;;;12.90;3.35;;;3.50;99.90;;;;;;4947501;28;20125;-68